sensor_id;sensor_type;location;lat;lon;timestamp;P1;durP1;ratioP1;P2;durP2;ratioP2
42478;SDS011;28110;47.080;9.476;2023-07-29T00:00:42;3.50;;;2.72;;
42478;SDS011;28110;47.080;9.476;2023-07-29T00:03:09;4.30;;;2.50;;
42478;SDS011;28110;47.080;9.476;2023-07-29T00:05:35;3.87;;;2.63;;
42478;SDS011;28110;47.080;9.476;2023-07-29T00:08:01;4.65;;;2.80;;
42478;SDS011;28110;47.080;9.476;2023-07-29T00:10:28;4.90;;;2.63;;
42478;SDS011;28110;47.080;9.476;2023-07-29T00:12:56;5.93;;;2.80;;
42478;SDS011;28110;47.080;9.476;2023-07-29T00:15:21;3.90;;;2.75;;
42478;SDS011;28110;47.080;9.476;2023-07-29T00:17:47;3.57;;;2.43;;
42478;SDS011;28110;47.080;9.476;2023-07-29T00:20:12;4.07;;;2.60;;
42478;SDS011;28110;47.080;9.476;2023-07-29T00:22:38;5.30;;;2.72;;
42478;SDS011;28110;47.080;9.476;2023-07-29T00:25:03;4.93;;;3.10;;
42478;SDS011;28110;47.080;9.476;2023-07-29T00:27:29;5.00;;;2.55;;
42478;SDS011;28110;47.080;9.476;2023-07-29T00:29:55;5.00;;;2.90;;
42478;SDS011;28110;47.080;9.476;2023-07-29T00:32:20;4.10;;;2.40;;
42478;SDS011;28110;47.080;9.476;2023-07-29T00:34:46;4.78;;;2.80;;
42478;SDS011;28110;47.080;9.476;2023-07-29T00:37:11;5.90;;;2.93;;
42478;SDS011;28110;47.080;9.476;2023-07-29T00:39:37;5.87;;;2.60;;
42478;SDS011;28110;47.080;9.476;2023-07-29T00:42:03;3.97;;;2.70;;
42478;SDS011;28110;47.080;9.476;2023-07-29T00:44:29;5.07;;;2.58;;
42478;SDS011;28110;47.080;9.476;2023-07-29T00:46:56;3.70;;;2.60;;
42478;SDS011;28110;47.080;9.476;2023-07-29T00:49:23;4.38;;;2.60;;
42478;SDS011;28110;47.080;9.476;2023-07-29T00:51:49;3.90;;;2.55;;
42478;SDS011;28110;47.080;9.476;2023-07-29T00:54:15;4.53;;;2.90;;
42478;SDS011;28110;47.080;9.476;2023-07-29T00:56:41;6.00;;;3.00;;
42478;SDS011;28110;47.080;9.476;2023-07-29T00:59:07;4.22;;;2.53;;
42478;SDS011;28110;47.080;9.476;2023-07-29T01:01:33;4.68;;;2.63;;
42478;SDS011;28110;47.080;9.476;2023-07-29T01:03:59;6.30;;;2.80;;
42478;SDS011;28110;47.080;9.476;2023-07-29T01:09:02;3.88;;;2.80;;
42478;SDS011;28110;47.080;9.476;2023-07-29T01:12:18;3.03;;;2.20;;
42478;SDS011;28110;47.080;9.476;2023-07-29T01:14:58;4.88;;;2.72;;
42478;SDS011;28110;47.080;9.476;2023-07-29T01:17:46;3.40;;;2.47;;
42478;SDS011;28110;47.080;9.476;2023-07-29T01:20:14;3.70;;;2.40;;
42478;SDS011;28110;47.080;9.476;2023-07-29T01:22:40;3.78;;;2.72;;
42478;SDS011;28110;47.080;9.476;2023-07-29T01:25:07;3.57;;;2.37;;
42478;SDS011;28110;47.080;9.476;2023-07-29T01:27:33;4.50;;;2.53;;
42478;SDS011;28110;47.080;9.476;2023-07-29T01:29:59;4.30;;;2.63;;
42478;SDS011;28110;47.080;9.476;2023-07-29T01:32:31;4.93;;;2.43;;
42478;SDS011;28110;47.080;9.476;2023-07-29T01:37:48;4.32;;;2.60;;
42478;SDS011;28110;47.080;9.476;2023-07-29T01:40:17;3.67;;;2.40;;
42478;SDS011;28110;47.080;9.476;2023-07-29T01:42:43;4.25;;;2.72;;
42478;SDS011;28110;47.080;9.476;2023-07-29T01:45:11;4.47;;;2.57;;
42478;SDS011;28110;47.080;9.476;2023-07-29T01:47:36;4.05;;;2.53;;
42478;SDS011;28110;47.080;9.476;2023-07-29T01:50:05;3.60;;;2.20;;
42478;SDS011;28110;47.080;9.476;2023-07-29T01:52:31;3.88;;;2.50;;
42478;SDS011;28110;47.080;9.476;2023-07-29T01:54:57;3.38;;;2.53;;
42478;SDS011;28110;47.080;9.476;2023-07-29T01:57:22;3.90;;;2.38;;
42478;SDS011;28110;47.080;9.476;2023-07-29T01:59:48;5.03;;;2.63;;
42478;SDS011;28110;47.080;9.476;2023-07-29T02:02:13;3.07;;;2.10;;
42478;SDS011;28110;47.080;9.476;2023-07-29T02:04:39;3.70;;;2.30;;
42478;SDS011;28110;47.080;9.476;2023-07-29T02:07:04;2.80;;;2.10;;
42478;SDS011;28110;47.080;9.476;2023-07-29T02:09:30;4.83;;;2.33;;
42478;SDS011;28110;47.080;9.476;2023-07-29T02:11:56;5.00;;;2.40;;
42478;SDS011;28110;47.080;9.476;2023-07-29T02:14:22;3.08;;;2.13;;
42478;SDS011;28110;47.080;9.476;2023-07-29T02:16:48;4.37;;;2.40;;
42478;SDS011;28110;47.080;9.476;2023-07-29T02:19:14;6.75;;;3.00;;
42478;SDS011;28110;47.080;9.476;2023-07-29T02:21:40;5.53;;;2.33;;
42478;SDS011;28110;47.080;9.476;2023-07-29T02:24:05;4.45;;;2.22;;
42478;SDS011;28110;47.080;9.476;2023-07-29T02:26:31;4.17;;;2.27;;
42478;SDS011;28110;47.080;9.476;2023-07-29T02:28:56;4.17;;;2.10;;
42478;SDS011;28110;47.080;9.476;2023-07-29T02:31:22;5.65;;;2.58;;
42478;SDS011;28110;47.080;9.476;2023-07-29T02:33:49;3.35;;;2.25;;
42478;SDS011;28110;47.080;9.476;2023-07-29T02:36:15;4.90;;;2.20;;
42478;SDS011;28110;47.080;9.476;2023-07-29T02:38:41;4.22;;;2.22;;
42478;SDS011;28110;47.080;9.476;2023-07-29T02:41:08;5.43;;;2.50;;
42478;SDS011;28110;47.080;9.476;2023-07-29T02:43:34;4.28;;;2.33;;
42478;SDS011;28110;47.080;9.476;2023-07-29T02:46:03;3.47;;;2.20;;
42478;SDS011;28110;47.080;9.476;2023-07-29T02:48:29;3.85;;;2.20;;
42478;SDS011;28110;47.080;9.476;2023-07-29T02:50:55;7.22;;;2.55;;
42478;SDS011;28110;47.080;9.476;2023-07-29T02:53:24;3.92;;;2.33;;
42478;SDS011;28110;47.080;9.476;2023-07-29T02:55:50;4.63;;;2.13;;
42478;SDS011;28110;47.080;9.476;2023-07-29T02:58:15;3.30;;;2.40;;
42478;SDS011;28110;47.080;9.476;2023-07-29T03:00:41;3.53;;;2.40;;
42478;SDS011;28110;47.080;9.476;2023-07-29T03:03:08;3.47;;;2.38;;
42478;SDS011;28110;47.080;9.476;2023-07-29T03:05:34;4.70;;;2.30;;
42478;SDS011;28110;47.080;9.476;2023-07-29T03:08:00;5.63;;;2.30;;
42478;SDS011;28110;47.080;9.476;2023-07-29T03:10:25;5.43;;;2.33;;
42478;SDS011;28110;47.080;9.476;2023-07-29T03:12:53;3.50;;;2.50;;
42478;SDS011;28110;47.080;9.476;2023-07-29T03:15:22;4.97;;;1.93;;
42478;SDS011;28110;47.080;9.476;2023-07-29T03:17:49;4.50;;;2.22;;
42478;SDS011;28110;47.080;9.476;2023-07-29T03:20:15;3.97;;;2.50;;
42478;SDS011;28110;47.080;9.476;2023-07-29T03:22:42;3.27;;;2.30;;
42478;SDS011;28110;47.080;9.476;2023-07-29T03:25:08;4.05;;;2.15;;
42478;SDS011;28110;47.080;9.476;2023-07-29T03:27:34;4.13;;;2.33;;
42478;SDS011;28110;47.080;9.476;2023-07-29T03:30:01;3.33;;;2.20;;
42478;SDS011;28110;47.080;9.476;2023-07-29T03:32:30;7.50;;;2.60;;
42478;SDS011;28110;47.080;9.476;2023-07-29T03:34:55;7.60;;;2.53;;
42478;SDS011;28110;47.080;9.476;2023-07-29T03:37:21;5.53;;;2.33;;
42478;SDS011;28110;47.080;9.476;2023-07-29T03:39:47;4.80;;;2.43;;
42478;SDS011;28110;47.080;9.476;2023-07-29T03:42:12;3.97;;;2.27;;
42478;SDS011;28110;47.080;9.476;2023-07-29T03:44:38;5.30;;;2.53;;
42478;SDS011;28110;47.080;9.476;2023-07-29T03:47:06;3.55;;;2.63;;
42478;SDS011;28110;47.080;9.476;2023-07-29T03:49:32;6.72;;;2.38;;
42478;SDS011;28110;47.080;9.476;2023-07-29T03:51:58;3.70;;;2.15;;
42478;SDS011;28110;47.080;9.476;2023-07-29T03:54:23;5.10;;;2.57;;
42478;SDS011;28110;47.080;9.476;2023-07-29T03:56:49;7.20;;;3.00;;
42478;SDS011;28110;47.080;9.476;2023-07-29T03:59:14;5.13;;;2.43;;
42478;SDS011;28110;47.080;9.476;2023-07-29T04:01:40;3.95;;;2.20;;
42478;SDS011;28110;47.080;9.476;2023-07-29T04:04:06;2.87;;;2.17;;
42478;SDS011;28110;47.080;9.476;2023-07-29T04:06:31;4.07;;;2.65;;
42478;SDS011;28110;47.080;9.476;2023-07-29T04:08:57;5.63;;;2.78;;
42478;SDS011;28110;47.080;9.476;2023-07-29T04:11:23;4.90;;;2.60;;
42478;SDS011;28110;47.080;9.476;2023-07-29T04:13:49;9.77;;;2.22;;
42478;SDS011;28110;47.080;9.476;2023-07-29T04:16:14;3.97;;;2.53;;
42478;SDS011;28110;47.080;9.476;2023-07-29T04:18:41;3.92;;;2.63;;
42478;SDS011;28110;47.080;9.476;2023-07-29T04:21:07;3.50;;;2.50;;
42478;SDS011;28110;47.080;9.476;2023-07-29T04:23:32;5.25;;;2.67;;
42478;SDS011;28110;47.080;9.476;2023-07-29T04:25:58;7.30;;;2.65;;
42478;SDS011;28110;47.080;9.476;2023-07-29T04:28:23;6.07;;;2.20;;
42478;SDS011;28110;47.080;9.476;2023-07-29T04:30:49;4.65;;;2.17;;
42478;SDS011;28110;47.080;9.476;2023-07-29T04:33:15;4.13;;;2.50;;
42478;SDS011;28110;47.080;9.476;2023-07-29T04:35:40;5.00;;;2.30;;
42478;SDS011;28110;47.080;9.476;2023-07-29T04:38:06;4.47;;;2.60;;
42478;SDS011;28110;47.080;9.476;2023-07-29T04:40:34;4.40;;;2.50;;
42478;SDS011;28110;47.080;9.476;2023-07-29T04:43:00;4.55;;;2.60;;
42478;SDS011;28110;47.080;9.476;2023-07-29T04:45:29;3.60;;;2.50;;
42478;SDS011;28110;47.080;9.476;2023-07-29T04:47:55;4.17;;;2.57;;
42478;SDS011;28110;47.080;9.476;2023-07-29T04:50:21;6.15;;;2.88;;
42478;SDS011;28110;47.080;9.476;2023-07-29T04:52:47;5.30;;;2.57;;
42478;SDS011;28110;47.080;9.476;2023-07-29T04:55:12;3.80;;;2.58;;
42478;SDS011;28110;47.080;9.476;2023-07-29T04:57:38;7.40;;;3.23;;
42478;SDS011;28110;47.080;9.476;2023-07-29T05:00:04;8.07;;;3.03;;
42478;SDS011;28110;47.080;9.476;2023-07-29T05:02:29;5.37;;;2.87;;
42478;SDS011;28110;47.080;9.476;2023-07-29T05:04:55;5.53;;;2.80;;
42478;SDS011;28110;47.080;9.476;2023-07-29T05:07:20;5.63;;;3.30;;
42478;SDS011;28110;47.080;9.476;2023-07-29T05:09:47;5.20;;;2.87;;
42478;SDS011;28110;47.080;9.476;2023-07-29T05:12:13;4.40;;;2.80;;
42478;SDS011;28110;47.080;9.476;2023-07-29T05:14:38;3.93;;;2.50;;
42478;SDS011;28110;47.080;9.476;2023-07-29T05:17:04;4.85;;;3.13;;
42478;SDS011;28110;47.080;9.476;2023-07-29T05:19:30;4.27;;;2.37;;
42478;SDS011;28110;47.080;9.476;2023-07-29T05:21:56;6.05;;;2.83;;
42478;SDS011;28110;47.080;9.476;2023-07-29T05:24:22;5.10;;;2.40;;
42478;SDS011;28110;47.080;9.476;2023-07-29T05:26:48;5.20;;;2.43;;
42478;SDS011;28110;47.080;9.476;2023-07-29T05:29:14;5.30;;;2.20;;
42478;SDS011;28110;47.080;9.476;2023-07-29T05:31:40;4.72;;;2.33;;
42478;SDS011;28110;47.080;9.476;2023-07-29T05:34:05;4.47;;;2.40;;
42478;SDS011;28110;47.080;9.476;2023-07-29T05:36:31;4.37;;;2.47;;
42478;SDS011;28110;47.080;9.476;2023-07-29T05:38:56;3.87;;;2.80;;
42478;SDS011;28110;47.080;9.476;2023-07-29T05:41:22;3.33;;;2.40;;
42478;SDS011;28110;47.080;9.476;2023-07-29T05:43:48;3.22;;;2.30;;
42478;SDS011;28110;47.080;9.476;2023-07-29T05:46:13;4.87;;;2.47;;
42478;SDS011;28110;47.080;9.476;2023-07-29T05:48:39;6.70;;;2.70;;
42478;SDS011;28110;47.080;9.476;2023-07-29T05:51:04;4.18;;;2.60;;
42478;SDS011;28110;47.080;9.476;2023-07-29T05:53:32;5.73;;;2.60;;
42478;SDS011;28110;47.080;9.476;2023-07-29T05:55:58;5.38;;;2.55;;
42478;SDS011;28110;47.080;9.476;2023-07-29T05:58:23;3.50;;;2.40;;
42478;SDS011;28110;47.080;9.476;2023-07-29T06:00:49;4.30;;;2.60;;
42478;SDS011;28110;47.080;9.476;2023-07-29T06:03:14;5.63;;;2.80;;
42478;SDS011;28110;47.080;9.476;2023-07-29T06:05:40;4.27;;;2.43;;
42478;SDS011;28110;47.080;9.476;2023-07-29T06:08:06;3.67;;;2.20;;
42478;SDS011;28110;47.080;9.476;2023-07-29T06:10:33;3.73;;;2.13;;
42478;SDS011;28110;47.080;9.476;2023-07-29T06:12:58;4.72;;;2.58;;
42478;SDS011;28110;47.080;9.476;2023-07-29T06:15:24;4.27;;;2.57;;
42478;SDS011;28110;47.080;9.476;2023-07-29T06:17:50;4.10;;;2.53;;
42478;SDS011;28110;47.080;9.476;2023-07-29T06:20:15;5.32;;;2.38;;
42478;SDS011;28110;47.080;9.476;2023-07-29T06:22:41;3.80;;;1.90;;
42478;SDS011;28110;47.080;9.476;2023-07-29T06:25:08;3.75;;;2.10;;
42478;SDS011;28110;47.080;9.476;2023-07-29T06:27:33;4.17;;;2.40;;
42478;SDS011;28110;47.080;9.476;2023-07-29T06:29:59;4.47;;;2.30;;
42478;SDS011;28110;47.080;9.476;2023-07-29T06:32:24;4.40;;;2.50;;
42478;SDS011;28110;47.080;9.476;2023-07-29T06:34:50;3.87;;;2.20;;
42478;SDS011;28110;47.080;9.476;2023-07-29T06:37:16;4.50;;;2.83;;
42478;SDS011;28110;47.080;9.476;2023-07-29T06:39:42;4.20;;;2.70;;
42478;SDS011;28110;47.080;9.476;2023-07-29T06:42:08;5.13;;;2.38;;
42478;SDS011;28110;47.080;9.476;2023-07-29T06:44:33;5.50;;;2.60;;
42478;SDS011;28110;47.080;9.476;2023-07-29T06:46:59;4.90;;;2.60;;
42478;SDS011;28110;47.080;9.476;2023-07-29T06:49:24;3.00;;;2.50;;
42478;SDS011;28110;47.080;9.476;2023-07-29T06:51:50;5.40;;;2.60;;
42478;SDS011;28110;47.080;9.476;2023-07-29T06:54:16;4.90;;;2.10;;
42478;SDS011;28110;47.080;9.476;2023-07-29T06:56:42;5.13;;;2.50;;
42478;SDS011;28110;47.080;9.476;2023-07-29T06:59:08;5.63;;;2.80;;
42478;SDS011;28110;47.080;9.476;2023-07-29T07:01:34;4.57;;;2.40;;
42478;SDS011;28110;47.080;9.476;2023-07-29T07:03:59;4.45;;;2.55;;
42478;SDS011;28110;47.080;9.476;2023-07-29T07:06:25;3.73;;;2.57;;
42478;SDS011;28110;47.080;9.476;2023-07-29T07:08:51;4.40;;;2.70;;
42478;SDS011;28110;47.080;9.476;2023-07-29T07:11:18;4.40;;;2.58;;
42478;SDS011;28110;47.080;9.476;2023-07-29T07:13:44;4.95;;;2.55;;
42478;SDS011;28110;47.080;9.476;2023-07-29T07:16:09;4.10;;;2.60;;
42478;SDS011;28110;47.080;9.476;2023-07-29T07:18:35;3.90;;;2.47;;
42478;SDS011;28110;47.080;9.476;2023-07-29T07:21:01;4.07;;;2.50;;
42478;SDS011;28110;47.080;9.476;2023-07-29T07:23:26;4.27;;;2.47;;
42478;SDS011;28110;47.080;9.476;2023-07-29T07:25:52;5.97;;;3.00;;
42478;SDS011;28110;47.080;9.476;2023-07-29T07:28:17;6.17;;;2.40;;
42478;SDS011;28110;47.080;9.476;2023-07-29T07:30:43;4.47;;;2.23;;
42478;SDS011;28110;47.080;9.476;2023-07-29T07:33:08;4.45;;;2.63;;
42478;SDS011;28110;47.080;9.476;2023-07-29T07:35:34;5.37;;;2.80;;
42478;SDS011;28110;47.080;9.476;2023-07-29T07:38:00;5.70;;;2.85;;
42478;SDS011;28110;47.080;9.476;2023-07-29T07:40:27;2.70;;;2.15;;
42478;SDS011;28110;47.080;9.476;2023-07-29T07:42:52;7.20;;;2.80;;
42478;SDS011;28110;47.080;9.476;2023-07-29T07:45:18;4.43;;;2.80;;
42478;SDS011;28110;47.080;9.476;2023-07-29T07:47:44;4.03;;;2.50;;
42478;SDS011;28110;47.080;9.476;2023-07-29T07:50:10;4.78;;;2.72;;
42478;SDS011;28110;47.080;9.476;2023-07-29T07:52:35;6.60;;;2.63;;
42478;SDS011;28110;47.080;9.476;2023-07-29T07:55:01;6.27;;;3.00;;
42478;SDS011;28110;47.080;9.476;2023-07-29T07:57:27;4.35;;;2.45;;
42478;SDS011;28110;47.080;9.476;2023-07-29T07:59:53;3.50;;;2.60;;
42478;SDS011;28110;47.080;9.476;2023-07-29T08:02:18;7.38;;;2.78;;
42478;SDS011;28110;47.080;9.476;2023-07-29T08:04:45;3.77;;;2.23;;
42478;SDS011;28110;47.080;9.476;2023-07-29T08:07:10;5.50;;;2.47;;
42478;SDS011;28110;47.080;9.476;2023-07-29T08:09:36;4.10;;;2.60;;
42478;SDS011;28110;47.080;9.476;2023-07-29T08:12:01;5.00;;;2.40;;
42478;SDS011;28110;47.080;9.476;2023-07-29T08:14:27;4.43;;;2.83;;
42478;SDS011;28110;47.080;9.476;2023-07-29T08:16:52;3.57;;;2.67;;
42478;SDS011;28110;47.080;9.476;2023-07-29T08:19:18;3.93;;;2.60;;
42478;SDS011;28110;47.080;9.476;2023-07-29T08:21:44;3.22;;;2.33;;
42478;SDS011;28110;47.080;9.476;2023-07-29T08:24:09;6.07;;;2.97;;
42478;SDS011;28110;47.080;9.476;2023-07-29T08:26:35;5.07;;;2.80;;
42478;SDS011;28110;47.080;9.476;2023-07-29T08:29:00;3.63;;;2.58;;
42478;SDS011;28110;47.080;9.476;2023-07-29T08:31:26;3.73;;;2.80;;
42478;SDS011;28110;47.080;9.476;2023-07-29T08:33:51;5.37;;;2.97;;
42478;SDS011;28110;47.080;9.476;2023-07-29T08:36:17;6.38;;;2.63;;
42478;SDS011;28110;47.080;9.476;2023-07-29T08:38:42;3.63;;;2.83;;
42478;SDS011;28110;47.080;9.476;2023-07-29T08:41:15;4.13;;;2.67;;
42478;SDS011;28110;47.080;9.476;2023-07-29T08:44:07;6.90;;;2.90;;
42478;SDS011;28110;47.080;9.476;2023-07-29T08:46:38;3.70;;;2.70;;
42478;SDS011;28110;47.080;9.476;2023-07-29T08:49:04;4.80;;;3.20;;
42478;SDS011;28110;47.080;9.476;2023-07-29T08:51:30;4.67;;;2.60;;
42478;SDS011;28110;47.080;9.476;2023-07-29T08:53:57;5.22;;;2.40;;
42478;SDS011;28110;47.080;9.476;2023-07-29T08:56:24;6.10;;;3.30;;
42478;SDS011;28110;47.080;9.476;2023-07-29T08:58:49;7.03;;;2.90;;
42478;SDS011;28110;47.080;9.476;2023-07-29T09:01:15;3.60;;;2.88;;
42478;SDS011;28110;47.080;9.476;2023-07-29T09:03:41;5.00;;;2.70;;
42478;SDS011;28110;47.080;9.476;2023-07-29T09:06:07;4.50;;;2.90;;
42478;SDS011;28110;47.080;9.476;2023-07-29T09:08:33;4.18;;;2.95;;
42478;SDS011;28110;47.080;9.476;2023-07-29T09:10:59;4.03;;;2.70;;
42478;SDS011;28110;47.080;9.476;2023-07-29T09:13:25;4.03;;;2.58;;
42478;SDS011;28110;47.080;9.476;2023-07-29T09:15:55;5.50;;;2.73;;
42478;SDS011;28110;47.080;9.476;2023-07-29T09:18:22;3.90;;;2.75;;
42478;SDS011;28110;47.080;9.476;2023-07-29T09:20:48;4.30;;;2.92;;
42478;SDS011;28110;47.080;9.476;2023-07-29T09:23:15;3.78;;;2.75;;
42478;SDS011;28110;47.080;9.476;2023-07-29T09:25:40;4.10;;;2.87;;
42478;SDS011;28110;47.080;9.476;2023-07-29T09:28:10;3.70;;;2.70;;
42478;SDS011;28110;47.080;9.476;2023-07-29T09:30:38;4.88;;;2.90;;
42478;SDS011;28110;47.080;9.476;2023-07-29T09:33:04;3.30;;;2.80;;
42478;SDS011;28110;47.080;9.476;2023-07-29T09:35:30;6.55;;;2.80;;
42478;SDS011;28110;47.080;9.476;2023-07-29T09:37:57;7.17;;;3.07;;
42478;SDS011;28110;47.080;9.476;2023-07-29T09:40:23;4.05;;;2.70;;
42478;SDS011;28110;47.080;9.476;2023-07-29T09:42:49;3.70;;;2.70;;
42478;SDS011;28110;47.080;9.476;2023-07-29T09:45:20;5.97;;;2.80;;
42478;SDS011;28110;47.080;9.476;2023-07-29T09:47:49;4.90;;;2.75;;
42478;SDS011;28110;47.080;9.476;2023-07-29T09:50:15;9.32;;;3.10;;
42478;SDS011;28110;47.080;9.476;2023-07-29T09:52:42;4.70;;;2.73;;
42478;SDS011;28110;47.080;9.476;2023-07-29T09:55:12;5.03;;;2.78;;
42478;SDS011;28110;47.080;9.476;2023-07-29T09:57:38;4.40;;;2.90;;
42478;SDS011;28110;47.080;9.476;2023-07-29T10:00:05;6.22;;;3.35;;
42478;SDS011;28110;47.080;9.476;2023-07-29T10:02:36;4.25;;;2.80;;
42478;SDS011;28110;47.080;9.476;2023-07-29T10:05:07;5.77;;;3.00;;
42478;SDS011;28110;47.080;9.476;2023-07-29T10:07:36;4.15;;;2.95;;
42478;SDS011;28110;47.080;9.476;2023-07-29T10:10:03;5.35;;;2.90;;
42478;SDS011;28110;47.080;9.476;2023-07-29T10:12:31;4.47;;;3.17;;
42478;SDS011;28110;47.080;9.476;2023-07-29T10:15:00;6.10;;;3.42;;
42478;SDS011;28110;47.080;9.476;2023-07-29T10:17:29;4.37;;;2.90;;
42478;SDS011;28110;47.080;9.476;2023-07-29T10:19:55;4.13;;;2.95;;
42478;SDS011;28110;47.080;9.476;2023-07-29T10:22:22;5.50;;;2.97;;
42478;SDS011;28110;47.080;9.476;2023-07-29T10:24:53;13.45;;;3.10;;
42478;SDS011;28110;47.080;9.476;2023-07-29T10:27:24;8.73;;;3.17;;
42478;SDS011;28110;47.080;9.476;2023-07-29T10:29:50;4.63;;;2.87;;
42478;SDS011;28110;47.080;9.476;2023-07-29T10:32:17;8.15;;;2.92;;
42478;SDS011;28110;47.080;9.476;2023-07-29T10:34:45;3.63;;;2.83;;
42478;SDS011;28110;47.080;9.476;2023-07-29T10:37:10;4.20;;;3.15;;
42478;SDS011;28110;47.080;9.476;2023-07-29T10:39:40;4.07;;;3.00;;
42478;SDS011;28110;47.080;9.476;2023-07-29T10:42:06;4.53;;;2.72;;
42478;SDS011;28110;47.080;9.476;2023-07-29T10:47:16;4.83;;;2.90;;
42478;SDS011;28110;47.080;9.476;2023-07-29T10:49:50;3.72;;;2.78;;
42478;SDS011;28110;47.080;9.476;2023-07-29T10:55:00;5.65;;;3.28;;
42478;SDS011;28110;47.080;9.476;2023-07-29T10:57:31;3.85;;;2.88;;
42478;SDS011;28110;47.080;9.476;2023-07-29T11:00:02;5.93;;;3.53;;
42478;SDS011;28110;47.080;9.476;2023-07-29T11:02:29;4.68;;;3.25;;
42478;SDS011;28110;47.080;9.476;2023-07-29T11:04:56;4.72;;;3.47;;
42478;SDS011;28110;47.080;9.476;2023-07-29T11:07:23;6.15;;;3.85;;
42478;SDS011;28110;47.080;9.476;2023-07-29T11:09:58;4.30;;;3.42;;
42478;SDS011;28110;47.080;9.476;2023-07-29T11:17:51;4.88;;;3.60;;
42478;SDS011;28110;47.080;9.476;2023-07-29T11:20:17;4.63;;;3.40;;
42478;SDS011;28110;47.080;9.476;2023-07-29T11:22:44;4.53;;;3.25;;
42478;SDS011;28110;47.080;9.476;2023-07-29T11:25:11;6.80;;;3.37;;
42478;SDS011;28110;47.080;9.476;2023-07-29T11:27:38;6.05;;;3.65;;
42478;SDS011;28110;47.080;9.476;2023-07-29T11:30:04;4.72;;;3.35;;
42478;SDS011;28110;47.080;9.476;2023-07-29T11:32:32;4.88;;;3.47;;
42478;SDS011;28110;47.080;9.476;2023-07-29T11:35:02;4.47;;;3.60;;
42478;SDS011;28110;47.080;9.476;2023-07-29T11:37:29;6.57;;;3.83;;
42478;SDS011;28110;47.080;9.476;2023-07-29T11:39:54;5.95;;;3.95;;
42478;SDS011;28110;47.080;9.476;2023-07-29T11:42:20;5.13;;;3.80;;
42478;SDS011;28110;47.080;9.476;2023-07-29T11:44:46;6.47;;;3.78;;
42478;SDS011;28110;47.080;9.476;2023-07-29T11:47:12;5.83;;;3.80;;
42478;SDS011;28110;47.080;9.476;2023-07-29T11:49:38;5.45;;;3.50;;
42478;SDS011;28110;47.080;9.476;2023-07-29T11:52:08;6.03;;;3.60;;
42478;SDS011;28110;47.080;9.476;2023-07-29T11:54:35;3.57;;;3.20;;
42478;SDS011;28110;47.080;9.476;2023-07-29T11:57:07;5.65;;;3.60;;
42478;SDS011;28110;47.080;9.476;2023-07-29T11:59:34;6.55;;;3.60;;
42478;SDS011;28110;47.080;9.476;2023-07-29T12:02:00;6.70;;;3.50;;
42478;SDS011;28110;47.080;9.476;2023-07-29T12:04:28;6.32;;;3.72;;
42478;SDS011;28110;47.080;9.476;2023-07-29T12:06:55;5.13;;;3.00;;
42478;SDS011;28110;47.080;9.476;2023-07-29T12:09:21;7.13;;;3.35;;
42478;SDS011;28110;47.080;9.476;2023-07-29T12:11:46;7.90;;;3.53;;
42478;SDS011;28110;47.080;9.476;2023-07-29T12:14:12;7.27;;;3.50;;
42478;SDS011;28110;47.080;9.476;2023-07-29T12:16:42;5.57;;;3.65;;
42478;SDS011;28110;47.080;9.476;2023-07-29T12:19:08;4.88;;;3.30;;
42478;SDS011;28110;47.080;9.476;2023-07-29T12:21:33;7.43;;;3.70;;
42478;SDS011;28110;47.080;9.476;2023-07-29T12:24:00;4.57;;;3.60;;
42478;SDS011;28110;47.080;9.476;2023-07-29T12:26:27;5.30;;;3.40;;
42478;SDS011;28110;47.080;9.476;2023-07-29T12:28:54;5.23;;;3.83;;
42478;SDS011;28110;47.080;9.476;2023-07-29T12:31:19;7.65;;;3.50;;
42478;SDS011;28110;47.080;9.476;2023-07-29T12:33:45;5.33;;;3.80;;
42478;SDS011;28110;47.080;9.476;2023-07-29T12:36:10;6.07;;;3.30;;
42478;SDS011;28110;47.080;9.476;2023-07-29T12:38:36;5.30;;;3.33;;
42478;SDS011;28110;47.080;9.476;2023-07-29T12:41:01;8.63;;;3.60;;
42478;SDS011;28110;47.080;9.476;2023-07-29T12:43:27;7.30;;;3.73;;
42478;SDS011;28110;47.080;9.476;2023-07-29T12:45:53;4.88;;;3.50;;
42478;SDS011;28110;47.080;9.476;2023-07-29T12:48:19;6.50;;;3.80;;
42478;SDS011;28110;47.080;9.476;2023-07-29T12:50:44;3.57;;;3.10;;
42478;SDS011;28110;47.080;9.476;2023-07-29T12:53:11;4.97;;;3.70;;
42478;SDS011;28110;47.080;9.476;2023-07-29T12:55:36;4.07;;;3.23;;
42478;SDS011;28110;47.080;9.476;2023-07-29T12:58:02;5.23;;;3.40;;
42478;SDS011;28110;47.080;9.476;2023-07-29T13:00:28;5.47;;;3.65;;
42478;SDS011;28110;47.080;9.476;2023-07-29T13:02:54;5.57;;;3.60;;
42478;SDS011;28110;47.080;9.476;2023-07-29T13:05:19;9.10;;;3.27;;
42478;SDS011;28110;47.080;9.476;2023-07-29T13:07:45;3.87;;;2.40;;
42478;SDS011;28110;47.080;9.476;2023-07-29T13:10:11;2.92;;;1.75;;
42478;SDS011;28110;47.080;9.476;2023-07-29T13:12:37;2.93;;;1.60;;
42478;SDS011;28110;47.080;9.476;2023-07-29T13:15:02;4.03;;;1.92;;
42478;SDS011;28110;47.080;9.476;2023-07-29T13:17:28;2.88;;;1.45;;
42478;SDS011;28110;47.080;9.476;2023-07-29T13:19:54;2.67;;;1.97;;
42478;SDS011;28110;47.080;9.476;2023-07-29T13:22:19;4.73;;;2.00;;
42478;SDS011;28110;47.080;9.476;2023-07-29T13:24:46;3.42;;;1.90;;
42478;SDS011;28110;47.080;9.476;2023-07-29T13:27:11;3.25;;;2.08;;
42478;SDS011;28110;47.080;9.476;2023-07-29T13:29:37;2.23;;;1.80;;
42478;SDS011;28110;47.080;9.476;2023-07-29T13:32:02;2.30;;;1.70;;
42478;SDS011;28110;47.080;9.476;2023-07-29T13:34:28;6.65;;;2.05;;
42478;SDS011;28110;47.080;9.476;2023-07-29T13:36:54;2.17;;;1.60;;
42478;SDS011;28110;47.080;9.476;2023-07-29T13:39:19;2.30;;;1.83;;
42478;SDS011;28110;47.080;9.476;2023-07-29T13:41:45;1.73;;;1.50;;
42478;SDS011;28110;47.080;9.476;2023-07-29T13:44:10;2.63;;;1.70;;
42478;SDS011;28110;47.080;9.476;2023-07-29T13:46:36;3.72;;;1.70;;
42478;SDS011;28110;47.080;9.476;2023-07-29T13:49:02;2.90;;;1.73;;
42478;SDS011;28110;47.080;9.476;2023-07-29T13:51:28;4.70;;;2.10;;
42478;SDS011;28110;47.080;9.476;2023-07-29T13:53:53;3.30;;;2.23;;
42478;SDS011;28110;47.080;9.476;2023-07-29T13:56:19;3.13;;;2.27;;
42478;SDS011;28110;47.080;9.476;2023-07-29T13:58:44;3.50;;;2.63;;
42478;SDS011;28110;47.080;9.476;2023-07-29T14:01:10;4.23;;;2.73;;
42478;SDS011;28110;47.080;9.476;2023-07-29T14:03:35;3.80;;;2.83;;
42478;SDS011;28110;47.080;9.476;2023-07-29T14:06:01;4.40;;;2.70;;
42478;SDS011;28110;47.080;9.476;2023-07-29T14:08:26;3.90;;;2.67;;
42478;SDS011;28110;47.080;9.476;2023-07-29T14:10:52;3.47;;;2.40;;
42478;SDS011;28110;47.080;9.476;2023-07-29T14:13:17;3.58;;;2.40;;
42478;SDS011;28110;47.080;9.476;2023-07-29T14:15:43;4.90;;;2.80;;
42478;SDS011;28110;47.080;9.476;2023-07-29T14:18:08;3.87;;;3.03;;
42478;SDS011;28110;47.080;9.476;2023-07-29T14:20:34;4.22;;;2.38;;
42478;SDS011;28110;47.080;9.476;2023-07-29T14:23:00;3.63;;;2.20;;
42478;SDS011;28110;47.080;9.476;2023-07-29T14:25:25;3.38;;;2.58;;
42478;SDS011;28110;47.080;9.476;2023-07-29T14:27:51;3.23;;;2.20;;
42478;SDS011;28110;47.080;9.476;2023-07-29T14:30:17;4.70;;;2.67;;
42478;SDS011;28110;47.080;9.476;2023-07-29T14:32:43;3.97;;;2.30;;
42478;SDS011;28110;47.080;9.476;2023-07-29T14:46:36;3.53;;;1.40;;
42478;SDS011;28110;47.080;9.476;2023-07-29T14:49:02;3.78;;;1.27;;
42478;SDS011;28110;47.080;9.476;2023-07-29T14:51:27;1.97;;;1.00;;
42478;SDS011;28110;47.080;9.476;2023-07-29T14:53:53;2.55;;;1.17;;
42478;SDS011;28110;47.080;9.476;2023-07-29T14:56:19;1.20;;;0.80;;
42478;SDS011;28110;47.080;9.476;2023-07-29T14:58:45;1.97;;;1.10;;
42478;SDS011;28110;47.080;9.476;2023-07-29T15:01:10;2.70;;;1.15;;
42478;SDS011;28110;47.080;9.476;2023-07-29T15:03:36;2.27;;;1.53;;
42478;SDS011;28110;47.080;9.476;2023-07-29T15:06:01;1.73;;;1.30;;
42478;SDS011;28110;47.080;9.476;2023-07-29T15:08:28;2.20;;;1.60;;
42478;SDS011;28110;47.080;9.476;2023-07-29T15:10:53;2.80;;;1.70;;